sensor_id;sensor_type;location;lat;lon;timestamp;P1;durP1;ratioP1;P2;durP2;ratioP2
5299;SDS011;70402;42.670;23.258;2023-08-17T00:00:18;4.40;;;3.40;;
5299;SDS011;70402;42.670;23.258;2023-08-17T00:02:44;4.10;;;2.97;;
5299;SDS011;70402;42.670;23.258;2023-08-17T00:05:10;5.83;;;3.80;;
5299;SDS011;70402;42.670;23.258;2023-08-17T00:07:36;5.10;;;3.53;;
5299;SDS011;70402;42.670;23.258;2023-08-17T00:10:02;5.37;;;3.80;;
5299;SDS011;70402;42.670;23.258;2023-08-17T00:12:29;3.87;;;3.37;;
5299;SDS011;70402;42.670;23.258;2023-08-17T00:14:55;5.43;;;3.60;;
5299;SDS011;70402;42.670;23.258;2023-08-17T00:17:21;6.33;;;3.63;;
5299;SDS011;70402;42.670;23.258;2023-08-17T00:19:47;5.63;;;3.80;;
5299;SDS011;70402;42.670;23.258;2023-08-17T00:22:15;4.93;;;3.37;;
5299;SDS011;70402;42.670;23.258;2023-08-17T00:24:41;6.60;;;3.40;;
5299;SDS011;70402;42.670;23.258;2023-08-17T00:27:09;4.10;;;3.10;;
5299;SDS011;70402;42.670;23.258;2023-08-17T00:29:36;8.00;;;3.60;;
5299;SDS011;70402;42.670;23.258;2023-08-17T00:32:02;5.27;;;3.50;;
5299;SDS011;70402;42.670;23.258;2023-08-17T00:34:29;6.47;;;3.87;;
5299;SDS011;70402;42.670;23.258;2023-08-17T00:36:55;5.67;;;3.43;;
5299;SDS011;70402;42.670;23.258;2023-08-17T00:39:21;5.33;;;3.47;;
5299;SDS011;70402;42.670;23.258;2023-08-17T00:41:47;5.13;;;4.00;;
5299;SDS011;70402;42.670;23.258;2023-08-17T00:44:13;4.80;;;3.33;;
5299;SDS011;70402;42.670;23.258;2023-08-17T00:46:39;6.33;;;3.93;;
5299;SDS011;70402;42.670;23.258;2023-08-17T00:49:06;6.40;;;3.60;;
5299;SDS011;70402;42.670;23.258;2023-08-17T00:51:32;4.20;;;2.93;;
5299;SDS011;70402;42.670;23.258;2023-08-17T00:53:59;5.67;;;3.27;;
5299;SDS011;70402;42.670;23.258;2023-08-17T00:56:26;4.80;;;3.37;;
5299;SDS011;70402;42.670;23.258;2023-08-17T00:58:52;4.80;;;3.30;;
5299;SDS011;70402;42.670;23.258;2023-08-17T01:01:19;6.07;;;3.83;;
5299;SDS011;70402;42.670;23.258;2023-08-17T01:03:46;8.43;;;3.40;;
5299;SDS011;70402;42.670;23.258;2023-08-17T01:06:12;4.50;;;3.37;;
5299;SDS011;70402;42.670;23.258;2023-08-17T01:08:38;5.63;;;3.50;;
5299;SDS011;70402;42.670;23.258;2023-08-17T01:11:09;4.40;;;3.03;;
5299;SDS011;70402;42.670;23.258;2023-08-17T01:13:46;6.17;;;3.30;;
5299;SDS011;70402;42.670;23.258;2023-08-17T01:16:15;3.40;;;2.57;;
5299;SDS011;70402;42.670;23.258;2023-08-17T01:18:46;3.87;;;2.90;;
5299;SDS011;70402;42.670;23.258;2023-08-17T01:21:13;4.80;;;3.07;;
5299;SDS011;70402;42.670;23.258;2023-08-17T01:23:39;3.73;;;2.50;;
5299;SDS011;70402;42.670;23.258;2023-08-17T01:26:06;2.93;;;2.27;;
5299;SDS011;70402;42.670;23.258;2023-08-17T01:28:32;3.43;;;2.30;;
5299;SDS011;70402;42.670;23.258;2023-08-17T01:31:01;6.30;;;3.47;;
5299;SDS011;70402;42.670;23.258;2023-08-17T01:33:33;4.50;;;2.67;;
5299;SDS011;70402;42.670;23.258;2023-08-17T01:38:45;2.73;;;2.00;;
5299;SDS011;70402;42.670;23.258;2023-08-17T01:41:12;4.63;;;2.40;;
5299;SDS011;70402;42.670;23.258;2023-08-17T01:43:43;3.23;;;2.20;;
5299;SDS011;70402;42.670;23.258;2023-08-17T01:46:16;7.10;;;2.80;;
5299;SDS011;70402;42.670;23.258;2023-08-17T01:48:43;3.27;;;2.63;;
5299;SDS011;70402;42.670;23.258;2023-08-17T01:51:09;3.00;;;2.50;;
5299;SDS011;70402;42.670;23.258;2023-08-17T01:53:37;5.10;;;2.33;;
5299;SDS011;70402;42.670;23.258;2023-08-17T01:56:03;7.83;;;2.67;;
5299;SDS011;70402;42.670;23.258;2023-08-17T01:58:29;4.03;;;2.73;;
5299;SDS011;70402;42.670;23.258;2023-08-17T02:00:55;5.53;;;3.00;;
5299;SDS011;70402;42.670;23.258;2023-08-17T02:03:21;3.67;;;2.60;;
5299;SDS011;70402;42.670;23.258;2023-08-17T02:05:47;3.80;;;2.50;;
5299;SDS011;70402;42.670;23.258;2023-08-17T02:08:13;3.30;;;2.40;;
5299;SDS011;70402;42.670;23.258;2023-08-17T02:10:40;4.20;;;2.40;;
5299;SDS011;70402;42.670;23.258;2023-08-17T02:13:06;4.00;;;2.30;;
5299;SDS011;70402;42.670;23.258;2023-08-17T02:15:31;4.33;;;2.20;;
5299;SDS011;70402;42.670;23.258;2023-08-17T02:18:00;3.23;;;2.50;;
5299;SDS011;70402;42.670;23.258;2023-08-17T02:20:26;5.57;;;2.43;;
5299;SDS011;70402;42.670;23.258;2023-08-17T02:22:52;4.03;;;2.67;;
5299;SDS011;70402;42.670;23.258;2023-08-17T02:25:18;3.73;;;2.40;;
5299;SDS011;70402;42.670;23.258;2023-08-17T02:27:44;5.80;;;2.80;;
5299;SDS011;70402;42.670;23.258;2023-08-17T02:30:11;2.90;;;1.80;;
5299;SDS011;70402;42.670;23.258;2023-08-17T02:32:37;3.10;;;2.03;;
5299;SDS011;70402;42.670;23.258;2023-08-17T02:35:03;3.70;;;2.47;;
5299;SDS011;70402;42.670;23.258;2023-08-17T02:37:29;3.60;;;2.23;;
5299;SDS011;70402;42.670;23.258;2023-08-17T02:39:56;4.00;;;2.50;;
5299;SDS011;70402;42.670;23.258;2023-08-17T02:42:22;3.23;;;2.20;;
5299;SDS011;70402;42.670;23.258;2023-08-17T02:44:48;3.57;;;2.40;;
5299;SDS011;70402;42.670;23.258;2023-08-17T02:47:14;5.20;;;3.10;;
5299;SDS011;70402;42.670;23.258;2023-08-17T02:49:41;3.30;;;2.23;;
5299;SDS011;70402;42.670;23.258;2023-08-17T02:52:06;4.20;;;2.17;;
5299;SDS011;70402;42.670;23.258;2023-08-17T02:54:32;5.97;;;3.40;;
5299;SDS011;70402;42.670;23.258;2023-08-17T02:56:59;3.00;;;2.10;;
5299;SDS011;70402;42.670;23.258;2023-08-17T02:59:25;2.73;;;2.10;;
5299;SDS011;70402;42.670;23.258;2023-08-17T03:01:52;7.30;;;2.97;;
5299;SDS011;70402;42.670;23.258;2023-08-17T03:04:19;7.60;;;2.73;;
5299;SDS011;70402;42.670;23.258;2023-08-17T03:06:45;3.70;;;2.63;;
5299;SDS011;70402;42.670;23.258;2023-08-17T03:09:11;4.90;;;2.90;;
5299;SDS011;70402;42.670;23.258;2023-08-17T03:11:37;5.40;;;2.93;;
5299;SDS011;70402;42.670;23.258;2023-08-17T03:14:03;2.87;;;2.50;;
5299;SDS011;70402;42.670;23.258;2023-08-17T03:16:29;4.73;;;3.03;;
5299;SDS011;70402;42.670;23.258;2023-08-17T03:18:56;8.37;;;3.90;;
5299;SDS011;70402;42.670;23.258;2023-08-17T03:21:22;5.50;;;2.90;;
5299;SDS011;70402;42.670;23.258;2023-08-17T03:23:48;6.47;;;2.87;;
5299;SDS011;70402;42.670;23.258;2023-08-17T03:26:15;5.60;;;3.17;;
5299;SDS011;70402;42.670;23.258;2023-08-17T03:28:41;6.23;;;3.03;;
5299;SDS011;70402;42.670;23.258;2023-08-17T03:31:07;7.57;;;2.93;;
5299;SDS011;70402;42.670;23.258;2023-08-17T03:33:34;7.83;;;3.40;;
5299;SDS011;70402;42.670;23.258;2023-08-17T03:36:03;6.20;;;3.40;;
5299;SDS011;70402;42.670;23.258;2023-08-17T03:38:29;6.10;;;3.50;;
5299;SDS011;70402;42.670;23.258;2023-08-17T03:40:55;4.10;;;3.03;;
5299;SDS011;70402;42.670;23.258;2023-08-17T03:43:21;5.47;;;3.30;;
5299;SDS011;70402;42.670;23.258;2023-08-17T03:45:46;8.37;;;3.30;;
5299;SDS011;70402;42.670;23.258;2023-08-17T03:48:12;7.70;;;3.20;;
5299;SDS011;70402;42.670;23.258;2023-08-17T03:50:39;5.33;;;3.33;;
5299;SDS011;70402;42.670;23.258;2023-08-17T03:53:05;4.70;;;3.10;;
5299;SDS011;70402;42.670;23.258;2023-08-17T03:55:31;3.43;;;2.53;;
5299;SDS011;70402;42.670;23.258;2023-08-17T03:57:57;4.87;;;3.23;;
5299;SDS011;70402;42.670;23.258;2023-08-17T04:00:23;3.80;;;2.70;;
5299;SDS011;70402;42.670;23.258;2023-08-17T04:02:49;7.27;;;3.07;;
5299;SDS011;70402;42.670;23.258;2023-08-17T04:05:16;5.27;;;2.50;;
5299;SDS011;70402;42.670;23.258;2023-08-17T04:07:42;6.30;;;2.90;;
5299;SDS011;70402;42.670;23.258;2023-08-17T04:10:08;5.07;;;2.90;;
5299;SDS011;70402;42.670;23.258;2023-08-17T04:12:34;4.00;;;2.87;;
5299;SDS011;70402;42.670;23.258;2023-08-17T04:15:01;3.70;;;2.60;;
5299;SDS011;70402;42.670;23.258;2023-08-17T04:17:27;5.03;;;2.50;;
5299;SDS011;70402;42.670;23.258;2023-08-17T04:19:54;5.70;;;2.80;;
5299;SDS011;70402;42.670;23.258;2023-08-17T04:22:20;4.00;;;2.67;;
5299;SDS011;70402;42.670;23.258;2023-08-17T04:24:46;4.83;;;2.87;;
5299;SDS011;70402;42.670;23.258;2023-08-17T04:27:12;4.07;;;2.73;;
5299;SDS011;70402;42.670;23.258;2023-08-17T04:29:39;5.60;;;2.50;;
5299;SDS011;70402;42.670;23.258;2023-08-17T04:32:05;2.87;;;2.33;;
5299;SDS011;70402;42.670;23.258;2023-08-17T04:34:31;4.00;;;3.10;;
5299;SDS011;70402;42.670;23.258;2023-08-17T04:36:57;8.93;;;4.27;;
5299;SDS011;70402;42.670;23.258;2023-08-17T04:39:23;5.00;;;2.93;;
5299;SDS011;70402;42.670;23.258;2023-08-17T04:41:49;5.50;;;2.60;;
5299;SDS011;70402;42.670;23.258;2023-08-17T04:44:15;8.10;;;4.33;;
5299;SDS011;70402;42.670;23.258;2023-08-17T04:46:41;6.50;;;3.27;;
5299;SDS011;70402;42.670;23.258;2023-08-17T04:49:07;4.60;;;3.03;;
5299;SDS011;70402;42.670;23.258;2023-08-17T04:51:33;5.67;;;3.13;;
5299;SDS011;70402;42.670;23.258;2023-08-17T04:53:59;5.07;;;3.17;;
5299;SDS011;70402;42.670;23.258;2023-08-17T04:56:26;7.73;;;2.40;;
5299;SDS011;70402;42.670;23.258;2023-08-17T04:58:53;6.37;;;2.90;;
5299;SDS011;70402;42.670;23.258;2023-08-17T05:01:19;5.87;;;3.17;;
5299;SDS011;70402;42.670;23.258;2023-08-17T05:03:46;6.57;;;3.00;;
5299;SDS011;70402;42.670;23.258;2023-08-17T05:06:12;4.23;;;2.93;;
5299;SDS011;70402;42.670;23.258;2023-08-17T05:08:38;6.07;;;3.20;;
5299;SDS011;70402;42.670;23.258;2023-08-17T05:11:04;7.10;;;3.80;;
5299;SDS011;70402;42.670;23.258;2023-08-17T05:13:31;6.93;;;2.80;;
5299;SDS011;70402;42.670;23.258;2023-08-17T05:15:57;5.53;;;3.67;;
5299;SDS011;70402;42.670;23.258;2023-08-17T05:18:23;5.87;;;3.50;;
5299;SDS011;70402;42.670;23.258;2023-08-17T05:20:49;14.17;;;3.50;;
5299;SDS011;70402;42.670;23.258;2023-08-17T05:23:16;4.43;;;3.00;;
5299;SDS011;70402;42.670;23.258;2023-08-17T05:25:45;4.40;;;2.73;;
5299;SDS011;70402;42.670;23.258;2023-08-17T05:28:12;5.33;;;3.00;;
5299;SDS011;70402;42.670;23.258;2023-08-17T05:30:38;5.23;;;2.97;;
5299;SDS011;70402;42.670;23.258;2023-08-17T05:33:05;4.57;;;3.30;;
5299;SDS011;70402;42.670;23.258;2023-08-17T05:35:32;4.40;;;2.63;;
5299;SDS011;70402;42.670;23.258;2023-08-17T05:37:58;8.20;;;3.27;;
5299;SDS011;70402;42.670;23.258;2023-08-17T05:40:24;5.00;;;3.40;;
5299;SDS011;70402;42.670;23.258;2023-08-17T05:42:50;3.87;;;3.00;;
5299;SDS011;70402;42.670;23.258;2023-08-17T05:45:17;3.87;;;3.07;;
5299;SDS011;70402;42.670;23.258;2023-08-17T05:47:43;3.53;;;2.77;;
5299;SDS011;70402;42.670;23.258;2023-08-17T05:50:10;7.43;;;3.50;;
5299;SDS011;70402;42.670;23.258;2023-08-17T05:52:36;5.17;;;3.30;;
5299;SDS011;70402;42.670;23.258;2023-08-17T05:55:03;3.80;;;3.00;;
5299;SDS011;70402;42.670;23.258;2023-08-17T05:57:29;4.50;;;3.10;;
5299;SDS011;70402;42.670;23.258;2023-08-17T05:59:55;4.40;;;2.60;;
5299;SDS011;70402;42.670;23.258;2023-08-17T06:02:22;7.53;;;3.83;;
5299;SDS011;70402;42.670;23.258;2023-08-17T06:04:48;6.93;;;2.70;;
5299;SDS011;70402;42.670;23.258;2023-08-17T06:07:14;4.57;;;2.50;;
5299;SDS011;70402;42.670;23.258;2023-08-17T06:09:40;4.13;;;2.50;;
5299;SDS011;70402;42.670;23.258;2023-08-17T06:12:07;4.20;;;2.60;;
5299;SDS011;70402;42.670;23.258;2023-08-17T06:14:33;4.97;;;2.17;;
5299;SDS011;70402;42.670;23.258;2023-08-17T06:17:00;3.97;;;2.40;;
5299;SDS011;70402;42.670;23.258;2023-08-17T06:19:26;3.40;;;2.10;;
5299;SDS011;70402;42.670;23.258;2023-08-17T06:21:52;5.27;;;2.53;;
5299;SDS011;70402;42.670;23.258;2023-08-17T06:24:18;3.70;;;2.37;;
5299;SDS011;70402;42.670;23.258;2023-08-17T06:26:45;4.53;;;2.80;;
5299;SDS011;70402;42.670;23.258;2023-08-17T06:29:11;3.70;;;2.43;;
5299;SDS011;70402;42.670;23.258;2023-08-17T06:31:37;3.20;;;2.03;;
5299;SDS011;70402;42.670;23.258;2023-08-17T06:34:04;3.60;;;2.23;;
5299;SDS011;70402;42.670;23.258;2023-08-17T06:36:30;4.70;;;2.57;;
5299;SDS011;70402;42.670;23.258;2023-08-17T06:38:57;3.27;;;2.17;;
5299;SDS011;70402;42.670;23.258;2023-08-17T06:41:23;4.50;;;2.97;;
5299;SDS011;70402;42.670;23.258;2023-08-17T06:43:50;5.13;;;3.10;;
5299;SDS011;70402;42.670;23.258;2023-08-17T06:46:16;4.63;;;3.13;;
5299;SDS011;70402;42.670;23.258;2023-08-17T06:48:42;6.60;;;3.60;;
5299;SDS011;70402;42.670;23.258;2023-08-17T06:51:09;4.43;;;2.90;;
5299;SDS011;70402;42.670;23.258;2023-08-17T06:53:35;4.27;;;2.90;;
5299;SDS011;70402;42.670;23.258;2023-08-17T06:56:01;3.17;;;2.70;;
5299;SDS011;70402;42.670;23.258;2023-08-17T06:58:28;4.30;;;3.03;;
5299;SDS011;70402;42.670;23.258;2023-08-17T07:00:54;3.07;;;2.30;;
5299;SDS011;70402;42.670;23.258;2023-08-17T07:03:21;2.70;;;2.20;;
5299;SDS011;70402;42.670;23.258;2023-08-17T07:05:47;6.17;;;3.17;;
5299;SDS011;70402;42.670;23.258;2023-08-17T07:08:14;4.50;;;2.30;;
5299;SDS011;70402;42.670;23.258;2023-08-17T07:10:40;3.77;;;2.60;;
5299;SDS011;70402;42.670;23.258;2023-08-17T07:13:06;3.80;;;2.87;;
5299;SDS011;70402;42.670;23.258;2023-08-17T07:15:32;3.90;;;2.23;;
5299;SDS011;70402;42.670;23.258;2023-08-17T07:17:59;5.80;;;2.67;;
5299;SDS011;70402;42.670;23.258;2023-08-17T07:20:25;5.10;;;2.67;;
5299;SDS011;70402;42.670;23.258;2023-08-17T07:22:51;4.30;;;2.50;;
5299;SDS011;70402;42.670;23.258;2023-08-17T07:25:18;3.90;;;2.87;;
5299;SDS011;70402;42.670;23.258;2023-08-17T07:27:44;6.47;;;3.50;;
5299;SDS011;70402;42.670;23.258;2023-08-17T07:30:10;3.07;;;2.53;;
5299;SDS011;70402;42.670;23.258;2023-08-17T07:32:37;5.43;;;2.53;;
5299;SDS011;70402;42.670;23.258;2023-08-17T07:35:03;5.47;;;2.57;;
5299;SDS011;70402;42.670;23.258;2023-08-17T07:37:30;3.07;;;2.03;;
5299;SDS011;70402;42.670;23.258;2023-08-17T07:39:58;3.17;;;1.87;;
5299;SDS011;70402;42.670;23.258;2023-08-17T07:42:25;3.33;;;2.43;;
5299;SDS011;70402;42.670;23.258;2023-08-17T07:44:51;4.10;;;2.00;;
5299;SDS011;70402;42.670;23.258;2023-08-17T07:47:17;3.23;;;1.67;;
5299;SDS011;70402;42.670;23.258;2023-08-17T07:49:43;3.83;;;1.57;;
5299;SDS011;70402;42.670;23.258;2023-08-17T07:52:09;3.07;;;2.00;;
5299;SDS011;70402;42.670;23.258;2023-08-17T07:54:36;2.70;;;2.10;;
5299;SDS011;70402;42.670;23.258;2023-08-17T07:57:02;3.60;;;2.20;;
5299;SDS011;70402;42.670;23.258;2023-08-17T07:59:29;4.87;;;2.13;;
5299;SDS011;70402;42.670;23.258;2023-08-17T08:01:55;7.73;;;2.40;;
5299;SDS011;70402;42.670;23.258;2023-08-17T08:04:21;3.80;;;2.40;;
5299;SDS011;70402;42.670;23.258;2023-08-17T08:06:48;3.70;;;2.10;;
5299;SDS011;70402;42.670;23.258;2023-08-17T08:09:14;5.17;;;2.30;;
5299;SDS011;70402;42.670;23.258;2023-08-17T08:11:40;5.37;;;2.43;;
5299;SDS011;70402;42.670;23.258;2023-08-17T08:14:06;3.77;;;2.40;;
5299;SDS011;70402;42.670;23.258;2023-08-17T08:16:33;3.30;;;2.27;;
5299;SDS011;70402;42.670;23.258;2023-08-17T08:18:59;5.30;;;2.27;;
5299;SDS011;70402;42.670;23.258;2023-08-17T08:21:24;3.00;;;2.33;;
5299;SDS011;70402;42.670;23.258;2023-08-17T08:23:52;3.00;;;2.20;;
5299;SDS011;70402;42.670;23.258;2023-08-17T08:26:19;3.90;;;2.43;;
5299;SDS011;70402;42.670;23.258;2023-08-17T08:28:45;3.23;;;1.73;;
5299;SDS011;70402;42.670;23.258;2023-08-17T08:31:11;3.10;;;2.40;;
5299;SDS011;70402;42.670;23.258;2023-08-17T08:33:37;3.40;;;2.17;;
5299;SDS011;70402;42.670;23.258;2023-08-17T08:36:03;2.70;;;2.10;;
5299;SDS011;70402;42.670;23.258;2023-08-17T08:38:31;4.47;;;2.37;;
5299;SDS011;70402;42.670;23.258;2023-08-17T08:40:58;2.87;;;2.00;;
5299;SDS011;70402;42.670;23.258;2023-08-17T08:43:24;6.57;;;2.20;;
5299;SDS011;70402;42.670;23.258;2023-08-17T08:45:51;5.73;;;2.67;;
5299;SDS011;70402;42.670;23.258;2023-08-17T08:48:18;5.20;;;2.30;;
5299;SDS011;70402;42.670;23.258;2023-08-17T08:50:45;3.13;;;2.23;;
5299;SDS011;70402;42.670;23.258;2023-08-17T08:53:14;3.07;;;2.50;;
5299;SDS011;70402;42.670;23.258;2023-08-17T08:55:54;2.73;;;2.20;;
5299;SDS011;70402;42.670;23.258;2023-08-17T08:58:22;2.83;;;2.20;;
5299;SDS011;70402;42.670;23.258;2023-08-17T09:00:49;4.37;;;1.90;;
5299;SDS011;70402;42.670;23.258;2023-08-17T09:03:15;7.50;;;2.20;;
5299;SDS011;70402;42.670;23.258;2023-08-17T09:05:48;2.67;;;2.13;;
5299;SDS011;70402;42.670;23.258;2023-08-17T09:08:15;4.57;;;2.20;;
5299;SDS011;70402;42.670;23.258;2023-08-17T09:10:45;3.00;;;2.10;;
5299;SDS011;70402;42.670;23.258;2023-08-17T09:13:12;2.60;;;1.93;;
5299;SDS011;70402;42.670;23.258;2023-08-17T09:15:38;6.93;;;2.03;;
5299;SDS011;70402;42.670;23.258;2023-08-17T09:18:05;3.93;;;2.20;;
5299;SDS011;70402;42.670;23.258;2023-08-17T09:23:10;2.57;;;2.10;;
5299;SDS011;70402;42.670;23.258;2023-08-17T09:25:39;4.73;;;2.23;;
5299;SDS011;70402;42.670;23.258;2023-08-17T09:28:09;2.77;;;1.73;;
5299;SDS011;70402;42.670;23.258;2023-08-17T09:33:22;2.03;;;1.83;;
5299;SDS011;70402;42.670;23.258;2023-08-17T09:35:52;2.40;;;1.77;;
5299;SDS011;70402;42.670;23.258;2023-08-17T09:38:19;5.10;;;2.00;;
5299;SDS011;70402;42.670;23.258;2023-08-17T09:40:46;2.47;;;1.87;;
5299;SDS011;70402;42.670;23.258;2023-08-17T09:43:16;2.30;;;1.90;;
5299;SDS011;70402;42.670;23.258;2023-08-17T09:45:43;2.60;;;2.10;;
5299;SDS011;70402;42.670;23.258;2023-08-17T09:48:11;3.23;;;2.03;;
5299;SDS011;70402;42.670;23.258;2023-08-17T09:50:41;3.00;;;2.20;;
5299;SDS011;70402;42.670;23.258;2023-08-17T09:53:12;3.37;;;1.97;;
5299;SDS011;70402;42.670;23.258;2023-08-17T09:55:39;2.30;;;1.50;;
5299;SDS011;70402;42.670;23.258;2023-08-17T09:58:07;4.60;;;1.97;;
5299;SDS011;70402;42.670;23.258;2023-08-17T10:00:33;2.70;;;2.03;;
5299;SDS011;70402;42.670;23.258;2023-08-17T10:03:01;4.23;;;2.63;;
5299;SDS011;70402;42.670;23.258;2023-08-17T10:05:28;2.97;;;1.90;;
5299;SDS011;70402;42.670;23.258;2023-08-17T10:07:57;2.90;;;1.83;;
5299;SDS011;70402;42.670;23.258;2023-08-17T10:10:25;3.37;;;1.60;;
5299;SDS011;70402;42.670;23.258;2023-08-17T10:13:11;3.30;;;2.03;;
5299;SDS011;70402;42.670;23.258;2023-08-17T10:24:16;2.57;;;1.77;;
5299;SDS011;70402;42.670;23.258;2023-08-17T10:26:43;4.03;;;1.60;;
5299;SDS011;70402;42.670;23.258;2023-08-17T10:29:11;2.37;;;1.97;;
5299;SDS011;70402;42.670;23.258;2023-08-17T10:31:37;2.20;;;1.40;;
5299;SDS011;70402;42.670;23.258;2023-08-17T10:34:04;2.17;;;1.60;;
5299;SDS011;70402;42.670;23.258;2023-08-17T10:36:33;2.10;;;1.57;;
5299;SDS011;70402;42.670;23.258;2023-08-17T10:39:18;2.00;;;1.73;;
5299;SDS011;70402;42.670;23.258;2023-08-17T10:41:48;2.43;;;1.50;;
5299;SDS011;70402;42.670;23.258;2023-08-17T10:44:16;11.00;;;2.27;;
5299;SDS011;70402;42.670;23.258;2023-08-17T10:46:43;2.13;;;1.47;;
5299;SDS011;70402;42.670;23.258;2023-08-17T10:49:26;2.03;;;1.30;;
5299;SDS011;70402;42.670;23.258;2023-08-17T10:52:06;1.70;;;1.43;;
5299;SDS011;70402;42.670;23.258;2023-08-17T10:54:39;2.53;;;1.67;;
5299;SDS011;70402;42.670;23.258;2023-08-17T11:00:06;2.20;;;1.37;;
5299;SDS011;70402;42.670;23.258;2023-08-17T11:02:58;3.17;;;1.47;;
5299;SDS011;70402;42.670;23.258;2023-08-17T11:08:01;1.40;;;1.20;;
5299;SDS011;70402;42.670;23.258;2023-08-17T11:10:28;1.40;;;1.10;;
5299;SDS011;70402;42.670;23.258;2023-08-17T11:12:55;1.47;;;1.27;;
5299;SDS011;70402;42.670;23.258;2023-08-17T11:15:25;1.70;;;1.50;;
5299;SDS011;70402;42.670;23.258;2023-08-17T11:17:52;3.43;;;1.50;;
5299;SDS011;70402;42.670;23.258;2023-08-17T11:20:18;1.83;;;1.60;;
5299;SDS011;70402;42.670;23.258;2023-08-17T11:22:45;2.20;;;1.70;;
5299;SDS011;70402;42.670;23.258;2023-08-17T11:25:12;1.87;;;1.50;;
5299;SDS011;70402;42.670;23.258;2023-08-17T11:27:38;2.23;;;1.60;;
5299;SDS011;70402;42.670;23.258;2023-08-17T11:30:04;1.73;;;1.33;;
5299;SDS011;70402;42.670;23.258;2023-08-17T11:32:31;2.00;;;1.40;;
5299;SDS011;70402;42.670;23.258;2023-08-17T11:34:56;2.07;;;1.50;;
5299;SDS011;70402;42.670;23.258;2023-08-17T11:37:22;2.27;;;1.70;;
5299;SDS011;70402;42.670;23.258;2023-08-17T11:39:48;1.60;;;1.30;;
5299;SDS011;70402;42.670;23.258;2023-08-17T11:42:14;1.83;;;1.57;;
5299;SDS011;70402;42.670;23.258;2023-08-17T11:44:40;3.70;;;1.90;;
5299;SDS011;70402;42.670;23.258;2023-08-17T11:47:06;2.40;;;1.57;;
5299;SDS011;70402;42.670;23.258;2023-08-17T11:49:32;2.23;;;1.50;;
5299;SDS011;70402;42.670;23.258;2023-08-17T11:51:59;1.97;;;1.47;;
5299;SDS011;70402;42.670;23.258;2023-08-17T11:54:25;4.20;;;1.80;;
5299;SDS011;70402;42.670;23.258;2023-08-17T11:56:51;2.40;;;1.80;;
5299;SDS011;70402;42.670;23.258;2023-08-17T11:59:17;2.33;;;1.83;;
5299;SDS011;70402;42.670;23.258;2023-08-17T12:01:45;2.23;;;1.67;;
5299;SDS011;70402;42.670;23.258;2023-08-17T12:04:11;2.00;;;1.50;;
5299;SDS011;70402;42.670;23.258;2023-08-17T12:06:42;7.13;;;2.10;;
5299;SDS011;70402;42.670;23.258;2023-08-17T12:09:11;3.90;;;1.90;;
5299;SDS011;70402;42.670;23.258;2023-08-17T12:11:40;3.53;;;1.80;;
5299;SDS011;70402;42.670;23.258;2023-08-17T12:14:10;4.93;;;2.30;;
5299;SDS011;70402;42.670;23.258;2023-08-17T12:16:49;5.40;;;2.00;;
5299;SDS011;70402;42.670;23.258;2023-08-17T12:19:15;2.30;;;1.50;;
5299;SDS011;70402;42.670;23.258;2023-08-17T12:21:41;3.63;;;2.40;;
5299;SDS011;70402;42.670;23.258;2023-08-17T12:24:08;5.20;;;1.60;;
5299;SDS011;70402;42.670;23.258;2023-08-17T12:26:40;2.47;;;1.73;;
5299;SDS011;70402;42.670;23.258;2023-08-17T12:29:08;2.43;;;1.73;;
5299;SDS011;70402;42.670;23.258;2023-08-17T12:31:35;3.87;;;2.10;;
5299;SDS011;70402;42.670;23.258;2023-08-17T12:34:01;3.20;;;1.70;;
5299;SDS011;70402;42.670;23.258;2023-08-17T12:36:27;2.00;;;1.80;;
5299;SDS011;70402;42.670;23.258;2023-08-17T12:38:53;4.53;;;1.90;;
5299;SDS011;70402;42.670;23.258;2023-08-17T12:41:19;3.43;;;2.17;;
5299;SDS011;70402;42.670;23.258;2023-08-17T12:43:45;3.43;;;1.83;;
5299;SDS011;70402;42.670;23.258;2023-08-17T12:46:11;2.77;;;2.20;;
5299;SDS011;70402;42.670;23.258;2023-08-17T12:48:37;2.70;;;2.00;;
5299;SDS011;70402;42.670;23.258;2023-08-17T12:51:04;3.70;;;2.43;;
5299;SDS011;70402;42.670;23.258;2023-08-17T12:53:30;4.77;;;2.50;;
5299;SDS011;70402;42.670;23.258;2023-08-17T12:55:56;2.77;;;2.23;;
5299;SDS011;70402;42.670;23.258;2023-08-17T12:58:22;2.97;;;2.30;;
5299;SDS011;70402;42.670;23.258;2023-08-17T13:00:48;3.10;;;2.20;;
5299;SDS011;70402;42.670;23.258;2023-08-17T13:03:19;3.23;;;2.20;;
5299;SDS011;70402;42.670;23.258;2023-08-17T13:05:45;3.30;;;2.10;;
5299;SDS011;70402;42.670;23.258;2023-08-17T13:08:11;3.20;;;2.10;;
5299;SDS011;70402;42.670;23.258;2023-08-17T13:10:37;3.03;;;2.30;;
5299;SDS011;70402;42.670;23.258;2023-08-17T13:13:03;2.83;;;2.33;;
5299;SDS011;70402;42.670;23.258;2023-08-17T13:15:31;3.50;;;2.47;;
5299;SDS011;70402;42.670;23.258;2023-08-17T13:17:58;4.23;;;2.50;;
5299;SDS011;70402;42.670;23.258;2023-08-17T13:20:25;3.83;;;2.67;;
5299;SDS011;70402;42.670;23.258;2023-08-17T13:22:51;2.80;;;2.37;;
5299;SDS011;70402;42.670;23.258;2023-08-17T13:25:17;3.33;;;2.50;;
5299;SDS011;70402;42.670;23.258;2023-08-17T13:27:43;3.07;;;2.57;;
5299;SDS011;70402;42.670;23.258;2023-08-17T13:30:09;3.17;;;2.40;;
5299;SDS011;70402;42.670;23.258;2023-08-17T13:32:36;2.70;;;2.50;;
5299;SDS011;70402;42.670;23.258;2023-08-17T13:35:05;3.13;;;2.50;;
5299;SDS011;70402;42.670;23.258;2023-08-17T13:37:31;3.60;;;2.27;;
5299;SDS011;70402;42.670;23.258;2023-08-17T13:39:57;2.70;;;2.40;;
5299;SDS011;70402;42.670;23.258;2023-08-17T13:42:24;3.87;;;2.60;;
5299;SDS011;70402;42.670;23.258;2023-08-17T13:44:49;3.80;;;2.63;;
5299;SDS011;70402;42.670;23.258;2023-08-17T13:47:15;2.40;;;2.00;;
5299;SDS011;70402;42.670;23.258;2023-08-17T13:49:41;3.13;;;2.37;;
5299;SDS011;70402;42.670;23.258;2023-08-17T13:52:07;3.20;;;2.60;;
5299;SDS011;70402;42.670;23.258;2023-08-17T13:54:33;5.30;;;2.40;;
5299;SDS011;70402;42.670;23.258;2023-08-17T13:56:59;3.57;;;3.20;;
5299;SDS011;70402;42.670;23.258;2023-08-17T13:59:25;2.40;;;2.20;;
5299;SDS011;70402;42.670;23.258;2023-08-17T14:01:51;4.70;;;3.00;;
5299;SDS011;70402;42.670;23.258;2023-08-17T14:04:17;2.70;;;2.40;;
5299;SDS011;70402;42.670;23.258;2023-08-17T14:06:43;4.50;;;2.20;;
5299;SDS011;70402;42.670;23.258;2023-08-17T14:09:09;8.13;;;2.13;;
5299;SDS011;70402;42.670;23.258;2023-08-17T14:11:35;4.43;;;2.40;;
5299;SDS011;70402;42.670;23.258;2023-08-17T14:14:01;2.30;;;2.00;;
5299;SDS011;70402;42.670;23.258;2023-08-17T14:16:27;2.53;;;2.33;;
5299;SDS011;70402;42.670;23.258;2023-08-17T14:18:53;3.20;;;2.30;;
5299;SDS011;70402;42.670;23.258;2023-08-17T14:21:19;3.83;;;2.10;;
5299;SDS011;70402;42.670;23.258;2023-08-17T14:23:45;3.67;;;2.43;;
5299;SDS011;70402;42.670;23.258;2023-08-17T14:26:12;4.53;;;2.20;;
5299;SDS011;70402;42.670;23.258;2023-08-17T14:28:37;3.43;;;2.50;;
5299;SDS011;70402;42.670;23.258;2023-08-17T14:31:03;1.97;;;1.77;;
5299;SDS011;70402;42.670;23.258;2023-08-17T14:33:29;2.70;;;1.87;;
5299;SDS011;70402;42.670;23.258;2023-08-17T14:35:55;4.90;;;2.00;;
5299;SDS011;70402;42.670;23.258;2023-08-17T14:38:21;2.70;;;1.83;;
5299;SDS011;70402;42.670;23.258;2023-08-17T14:40:47;4.33;;;2.20;;
5299;SDS011;70402;42.670;23.258;2023-08-17T14:43:14;3.77;;;2.40;;
5299;SDS011;70402;42.670;23.258;2023-08-17T14:45:41;3.03;;;2.27;;
5299;SDS011;70402;42.670;23.258;2023-08-17T14:48:08;3.67;;;2.37;;
5299;SDS011;70402;42.670;23.258;2023-08-17T14:50:34;2.13;;;1.80;;
5299;SDS011;70402;42.670;23.258;2023-08-17T14:53:01;1.83;;;1.63;;
5299;SDS011;70402;42.670;23.258;2023-08-17T14:55:29;2.77;;;1.87;;
5299;SDS011;70402;42.670;23.258;2023-08-17T14:57:55;3.07;;;2.43;;
5299;SDS011;70402;42.670;23.258;2023-08-17T15:00:21;3.20;;;2.07;;
5299;SDS011;70402;42.670;23.258;2023-08-17T15:02:47;2.80;;;2.27;;
5299;SDS011;70402;42.670;23.258;2023-08-17T15:05:14;2.90;;;2.60;;
5299;SDS011;70402;42.670;23.258;2023-08-17T15:07:40;2.80;;;2.37;;